createdAt,value
2022-08-01T00:01:32.715Z,1.08
2022-08-01T00:04:01.151Z,1.13
2022-08-01T00:06:29.810Z,1.30
2022-08-01T00:08:58.191Z,1.27
2022-08-01T00:11:26.575Z,1.38
2022-08-01T00:13:54.965Z,0.88
2022-08-01T00:16:24.586Z,1.20
2022-08-01T00:18:54.904Z,1.20
2022-08-01T00:21:23.348Z,1.30
2022-08-01T00:23:51.740Z,1.20
2022-08-01T00:26:20.020Z,1.50
2022-08-01T00:28:48.904Z,1.30
2022-08-01T00:31:17.191Z,1.20
2022-08-01T00:33:45.561Z,1.30
2022-08-01T00:36:15.191Z,1.33
2022-08-01T00:38:43.586Z,1.60
2022-08-01T00:41:11.900Z,1.65
2022-08-01T00:43:40.311Z,1.60
2022-08-01T00:46:08.623Z,1.10
2022-08-01T00:48:37.006Z,1.17
2022-08-01T00:51:06.086Z,1.40
2022-08-01T00:53:50.949Z,1.33
2022-08-01T00:56:21.155Z,1.20
2022-08-01T00:58:49.714Z,1.42
2022-08-01T01:01:19.195Z,1.30
2022-08-01T01:04:03.064Z,1.50
2022-08-01T01:06:44.449Z,1.20
2022-08-01T01:09:24.660Z,1.25
2022-08-01T01:12:00.353Z,1.27
2022-08-01T01:14:33.639Z,1.50
2022-08-01T01:17:02.997Z,1.20
2022-08-01T01:19:33.412Z,1.23
2022-08-01T01:22:16.769Z,1.50
2022-08-01T01:24:50.087Z,1.10
2022-08-01T01:27:23.604Z,1.25
2022-08-01T01:29:58.540Z,1.27
2022-08-01T01:32:34.577Z,1.35
2022-08-01T01:35:04.462Z,1.70
2022-08-01T01:37:34.596Z,1.30
2022-08-01T01:40:04.727Z,1.40
2022-08-01T01:42:33.296Z,1.40
2022-08-01T01:45:05.202Z,1.33
2022-08-01T01:47:34.123Z,1.27
2022-08-01T01:50:04.898Z,1.17
2022-08-01T01:52:33.992Z,1.23
2022-08-01T01:55:06.472Z,1.40
2022-08-01T01:57:35.165Z,1.33
2022-08-01T02:00:06.969Z,1.30
2022-08-01T02:02:36.242Z,1.23
2022-08-01T02:05:04.761Z,1.60
2022-08-01T02:07:33.456Z,1.38
2022-08-01T02:10:03.212Z,1.23
2022-08-01T02:12:32.358Z,1.30
2022-08-01T02:15:01.056Z,1.38
2022-08-01T02:17:30.828Z,1.80
2022-08-01T02:19:59.474Z,1.52
2022-08-01T02:22:29.953Z,1.60
2022-08-01T02:25:02.176Z,1.60
2022-08-01T02:27:32.765Z,1.40
2022-08-01T02:30:02.047Z,1.88
2022-08-01T02:32:33.901Z,1.35
2022-08-01T02:35:03.440Z,1.50
2022-08-01T02:37:34.215Z,1.38
2022-08-01T02:40:02.998Z,1.40
2022-08-01T02:42:32.093Z,1.77
2022-08-01T02:45:00.411Z,1.42
2022-08-01T02:47:30.233Z,1.45
2022-08-01T02:50:01.151Z,1.35
2022-08-01T02:52:31.388Z,1.50
2022-08-01T02:55:00.647Z,1.33
2022-08-01T02:57:30.179Z,1.40
2022-08-01T03:00:18.291Z,1.65
2022-08-01T03:02:47.321Z,1.67
2022-08-01T03:05:18.077Z,1.42
2022-08-01T03:07:48.533Z,1.25
2022-08-01T03:10:18.645Z,1.60
2022-08-01T03:12:48.395Z,1.50
2022-08-01T03:15:17.684Z,1.50
2022-08-01T03:17:46.806Z,1.17
2022-08-01T03:20:18.184Z,1.30
2022-08-01T03:22:47.713Z,1.60
2022-08-01T03:25:16.666Z,1.40
2022-08-01T03:27:46.067Z,1.50
2022-08-01T03:30:16.419Z,1.58
2022-08-01T03:32:45.010Z,1.30
2022-08-01T03:35:13.326Z,1.58
2022-08-01T03:38:06.287Z,1.35
2022-08-01T03:40:34.302Z,1.20
2022-08-01T03:43:10.567Z,1.23
2022-08-01T03:45:39.623Z,1.40
2022-08-01T03:48:11.575Z,1.17
2022-08-01T03:50:42.178Z,1.33
2022-08-01T03:53:12.921Z,1.20
2022-08-01T03:55:41.856Z,1.25
2022-08-01T03:58:11.365Z,1.13
2022-08-01T04:00:40.800Z,1.70
2022-08-01T04:03:10.145Z,1.50
2022-08-01T04:05:39.012Z,1.40
2022-08-01T04:08:07.414Z,1.55
2022-08-01T04:10:37.290Z,1.25
2022-08-01T04:13:05.692Z,1.27
2022-08-01T04:15:33.983Z,1.33
2022-08-01T04:18:02.480Z,1.52
2022-08-01T04:20:30.812Z,1.67
2022-08-01T04:22:59.298Z,1.50
2022-08-01T04:25:30.705Z,1.60
2022-08-01T04:28:01.775Z,1.40
2022-08-01T04:30:32.207Z,1.50
2022-08-01T04:33:02.027Z,1.50
2022-08-01T04:36:02.612Z,1.42
2022-08-01T04:38:22.109Z,1.35
2022-08-01T04:40:53.463Z,1.25
2022-08-01T04:43:23.890Z,1.52
2022-08-01T04:45:53.210Z,1.10
2022-08-01T04:48:22.945Z,1.40
2022-08-01T04:50:52.610Z,1.48
2022-08-01T04:53:23.150Z,1.73
2022-08-01T04:55:51.624Z,1.40
2022-08-01T04:58:19.955Z,1.38
2022-08-01T05:00:49.661Z,1.70
2022-08-01T05:03:18.336Z,1.30
2022-08-01T05:05:46.759Z,1.50
2022-08-01T05:08:15.405Z,1.30
2022-08-01T05:10:43.700Z,1.48
2022-08-01T05:13:12.098Z,1.45
2022-08-01T05:15:40.395Z,2.20
2022-08-01T05:18:10.523Z,1.60
2022-08-01T05:20:38.928Z,1.60
2022-08-01T05:23:09.248Z,1.90
2022-08-01T05:25:58.072Z,1.60
2022-08-01T05:28:27.333Z,1.73
2022-08-01T05:30:56.586Z,1.60
2022-08-01T05:33:26.296Z,1.50
2022-08-01T05:35:54.653Z,1.50
2022-08-01T05:38:22.973Z,1.48
2022-08-01T05:40:51.394Z,1.50
2022-08-01T05:43:19.723Z,1.80
2022-08-01T05:45:48.791Z,1.42
2022-08-01T05:48:17.151Z,1.70
2022-08-01T05:50:48.626Z,1.65
2022-08-01T05:53:16.945Z,1.45
2022-08-01T05:55:45.298Z,1.80
2022-08-01T05:58:13.763Z,1.90
2022-08-01T06:00:42.227Z,1.95
2022-08-01T06:03:12.201Z,1.80
2022-08-01T06:05:40.625Z,1.80
2022-08-01T06:08:10.265Z,1.80
2022-08-01T06:10:38.627Z,1.80
2022-08-01T06:13:07.291Z,1.70
2022-08-01T06:15:36.147Z,1.85
2022-08-01T06:18:05.922Z,1.80
2022-08-01T06:20:34.488Z,1.90
2022-08-01T06:23:12.058Z,1.98
2022-08-01T06:25:54.440Z,1.98
2022-08-01T06:28:22.820Z,1.70
2022-08-01T06:30:51.151Z,1.73
2022-08-01T06:33:19.763Z,2.15
2022-08-01T06:35:48.222Z,2.30
2022-08-01T06:38:16.522Z,1.95
2022-08-01T06:40:44.986Z,2.10
2022-08-01T06:43:14.671Z,2.00
2022-08-01T06:45:43.367Z,2.25
2022-08-01T06:48:12.264Z,2.30
2022-08-01T06:50:40.700Z,2.72
2022-08-01T06:53:09.025Z,2.20
2022-08-01T06:55:37.523Z,2.40
2022-08-01T06:58:05.926Z,2.20
2022-08-01T07:00:36.586Z,2.20
2022-08-01T07:03:05.275Z,2.40
2022-08-01T07:05:33.625Z,2.05
2022-08-01T07:08:02.078Z,2.20
2022-08-01T07:10:30.595Z,2.53
2022-08-01T07:12:58.918Z,2.53
2022-08-01T07:15:28.160Z,2.42
2022-08-01T07:17:59.804Z,2.40
2022-08-01T07:20:28.166Z,2.55
2022-08-01T07:22:57.945Z,2.83
2022-08-01T07:25:28.583Z,2.90
2022-08-01T07:27:56.977Z,2.80
2022-08-01T07:30:25.390Z,2.35
2022-08-01T07:32:53.899Z,2.50
2022-08-01T07:35:23.890Z,2.53
2022-08-01T07:37:54.032Z,2.40
2022-08-01T07:40:22.750Z,2.40
2022-08-01T07:42:51.304Z,2.63
2022-08-01T07:45:19.833Z,2.10
2022-08-01T07:47:50.341Z,2.70
2022-08-01T07:50:19.012Z,2.70
2022-08-01T07:52:48.631Z,2.50
2022-08-01T07:55:17.041Z,2.35
2022-08-01T07:57:45.597Z,2.78
2022-08-01T08:00:14.624Z,2.67
2022-08-01T08:02:43.312Z,2.80
2022-08-01T08:05:11.788Z,2.50
2022-08-01T08:07:40.206Z,2.30
2022-08-01T08:10:10.623Z,2.78
2022-08-01T08:12:39.188Z,2.70
2022-08-01T08:15:07.950Z,3.00
2022-08-01T08:17:36.653Z,3.10
2022-08-01T08:20:08.917Z,2.60
2022-08-01T08:22:37.986Z,2.75
2022-08-01T08:25:07.637Z,3.28
2022-08-01T08:27:37.950Z,2.90
2022-08-01T08:30:08.542Z,3.35
2022-08-01T08:32:37.477Z,3.22
2022-08-01T08:35:06.825Z,3.30
2022-08-01T08:37:37.966Z,3.65
2022-08-01T08:40:08.331Z,3.35
2022-08-01T08:42:38.309Z,3.47
2022-08-01T08:45:08.167Z,3.42
2022-08-01T08:47:41.068Z,3.30
2022-08-01T08:50:10.220Z,3.70
2022-08-01T08:52:41.163Z,3.30
2022-08-01T08:55:10.944Z,3.50
2022-08-01T08:57:42.177Z,3.50
2022-08-01T09:00:11.917Z,3.58
2022-08-01T09:02:43.431Z,3.60
2022-08-01T09:05:15.036Z,3.15
2022-08-01T09:07:47.435Z,3.45
2022-08-01T09:10:16.123Z,3.47
2022-08-01T09:12:59.389Z,3.40
2022-08-01T09:15:40.233Z,3.60
2022-08-01T09:18:08.602Z,3.20
2022-08-01T09:20:37.137Z,3.22
2022-08-01T09:23:05.776Z,3.00
2022-08-01T09:25:52.546Z,3.13
2022-08-01T09:28:29.392Z,3.40
2022-08-01T09:31:00.007Z,3.33
2022-08-01T09:33:34.915Z,2.65
2022-08-01T09:36:05.485Z,3.42
2022-08-01T09:38:34.409Z,3.20
2022-08-01T09:41:03.409Z,3.45
2022-08-01T09:43:32.788Z,3.97
2022-08-01T09:46:06.819Z,3.70
2022-08-01T09:48:41.455Z,3.53
2022-08-01T09:51:11.517Z,3.40
2022-08-01T09:53:51.047Z,3.22
2022-08-01T09:56:21.743Z,3.20
2022-08-01T09:58:59.450Z,3.17
2022-08-01T10:01:37.520Z,3.45
2022-08-01T10:04:12.125Z,3.35
2022-08-01T10:06:41.599Z,3.33
2022-08-01T10:09:10.253Z,3.10
2022-08-01T10:11:40.075Z,3.00
2022-08-01T10:14:09.271Z,3.03
2022-08-01T10:16:39.286Z,3.42
2022-08-01T10:19:11.322Z,3.40
2022-08-01T10:21:57.210Z,3.05
2022-08-01T10:24:29.148Z,3.25
2022-08-01T10:27:07.939Z,3.05
2022-08-01T10:30:00.147Z,2.85
2022-08-01T10:32:34.119Z,2.80
2022-08-01T10:35:06.802Z,3.38
2022-08-01T10:37:36.245Z,3.20
2022-08-01T10:40:30.573Z,3.30
2022-08-01T10:42:59.625Z,3.40
2022-08-01T10:45:30.651Z,2.83
2022-08-01T10:48:06.673Z,3.33
2022-08-01T10:50:37.460Z,3.17
2022-08-01T10:53:16.750Z,2.83
2022-08-01T10:55:53.287Z,3.08
2022-08-01T10:58:27.571Z,2.88
2022-08-01T11:01:15.148Z,2.90
2022-08-01T11:03:57.560Z,2.72
2022-08-01T11:06:31.017Z,3.10
2022-08-01T11:09:00.904Z,2.80
2022-08-01T11:11:29.409Z,2.60
2022-08-01T11:14:10.436Z,2.60
2022-08-01T11:16:40.025Z,2.72
2022-08-01T11:19:11.606Z,2.65
2022-08-01T11:22:01.280Z,2.65
2022-08-01T11:24:52.141Z,2.30
2022-08-01T11:27:23.356Z,2.53
2022-08-01T11:30:07.812Z,2.20
2022-08-01T11:32:58.703Z,2.35
2022-08-01T11:35:27.711Z,2.65
2022-08-01T11:37:57.693Z,2.53
2022-08-01T11:40:27.499Z,2.22
2022-08-01T11:43:10.753Z,2.50
2022-08-01T11:45:49.097Z,2.70
2022-08-01T11:48:20.519Z,2.50
2022-08-01T11:50:50.437Z,2.40
2022-08-01T11:53:19.852Z,2.50
2022-08-01T11:55:51.744Z,3.58
2022-08-01T11:58:29.226Z,2.83
2022-08-01T12:01:00.121Z,2.65
2022-08-01T12:03:33.128Z,2.90
2022-08-01T12:06:04.138Z,2.67
2022-08-01T12:08:35.726Z,2.15
2022-08-01T12:11:06.990Z,2.45
2022-08-01T12:13:41.922Z,2.15
2022-08-01T12:16:10.914Z,2.22
2022-08-01T12:18:40.990Z,2.22
2022-08-01T12:21:10.713Z,2.50
2022-08-01T12:23:39.105Z,2.13
2022-08-01T12:26:07.507Z,2.47
2022-08-01T12:28:41.476Z,2.67
2022-08-01T12:31:10.034Z,2.17
2022-08-01T12:33:41.242Z,2.25
2022-08-01T12:36:14.626Z,2.47
2022-08-01T12:38:43.246Z,2.22
2022-08-01T12:41:13.057Z,1.90
2022-08-01T12:43:42.214Z,2.17
2022-08-01T12:46:16.979Z,2.55
2022-08-01T12:48:45.802Z,2.10
2022-08-01T12:51:15.551Z,2.35
2022-08-01T12:53:44.203Z,2.30
2022-08-01T12:56:12.932Z,1.95
2022-08-01T12:58:41.745Z,2.60
2022-08-01T13:01:11.355Z,2.65
2022-08-01T13:03:40.093Z,2.50
2022-08-01T13:06:13.411Z,2.63
2022-08-01T13:08:43.279Z,2.60
2022-08-01T13:11:15.090Z,2.45
2022-08-01T13:13:45.633Z,2.20
2022-08-01T13:16:18.161Z,2.00
2022-08-01T13:19:03.104Z,2.95
2022-08-01T13:21:34.582Z,3.00
2022-08-01T13:24:25.615Z,2.15
2022-08-01T13:26:56.837Z,2.08
2022-08-01T13:29:32.017Z,2.05
2022-08-01T13:32:01.019Z,1.92
2022-08-01T13:34:32.869Z,1.75
2022-08-01T13:37:02.408Z,2.30
2022-08-01T13:39:45.068Z,3.88
2022-08-01T13:42:19.008Z,2.38
2022-08-01T13:44:47.828Z,1.90
2022-08-01T13:47:17.043Z,1.90
2022-08-01T13:49:45.740Z,2.05
2022-08-01T13:52:14.179Z,2.30
2022-08-01T13:54:43.859Z,2.22
2022-08-01T13:57:12.272Z,2.30
2022-08-01T13:59:40.577Z,2.28
2022-08-01T14:02:09.872Z,2.38
2022-08-01T14:04:38.378Z,2.45
2022-08-01T14:07:09.711Z,2.38
2022-08-01T14:09:57.860Z,2.40
2022-08-01T14:12:30.039Z,2.63
2022-08-01T14:14:58.360Z,2.47
2022-08-01T14:17:26.846Z,2.53
2022-08-01T14:20:00.231Z,2.47
2022-08-01T14:22:28.762Z,3.00
2022-08-01T14:25:01.434Z,3.70
2022-08-01T14:27:36.946Z,2.55
2022-08-01T14:30:05.542Z,2.50
2022-08-01T14:32:34.422Z,2.60
2022-08-01T14:35:02.839Z,2.40
2022-08-01T14:37:37.355Z,2.28
2022-08-01T14:40:09.806Z,2.25
2022-08-01T14:42:39.863Z,2.60
2022-08-01T14:45:10.288Z,2.90
2022-08-01T14:47:38.734Z,2.70
2022-08-01T14:50:08.036Z,2.67
2022-08-01T14:52:36.670Z,2.30
2022-08-01T14:55:05.288Z,2.85
2022-08-01T14:57:33.804Z,2.90
2022-08-01T15:00:03.593Z,2.92
2022-08-01T15:02:31.941Z,3.10
2022-08-01T15:05:00.245Z,2.72
2022-08-01T15:07:29.588Z,2.88
2022-08-01T15:09:58.113Z,2.67
2022-08-01T15:12:35.643Z,3.05
2022-08-01T15:15:14.276Z,2.70
2022-08-01T15:17:42.629Z,2.40
2022-08-01T15:20:11.256Z,2.45
2022-08-01T15:22:39.583Z,2.30
2022-08-01T15:25:08.338Z,2.78
2022-08-01T15:27:36.764Z,4.20
2022-08-01T15:30:06.020Z,2.65
2022-08-01T15:32:36.027Z,3.10
2022-08-01T15:35:04.403Z,2.97
2022-08-01T15:37:32.780Z,3.85
2022-08-01T15:40:01.127Z,3.22
2022-08-01T15:42:29.509Z,3.28
2022-08-01T15:44:57.832Z,3.28
2022-08-01T15:47:26.219Z,3.10
2022-08-01T15:50:00.295Z,3.30
2022-08-01T15:52:31.470Z,2.80
2022-08-01T15:55:00.341Z,2.97
2022-08-01T15:57:28.775Z,3.08
2022-08-01T15:59:57.169Z,3.10
2022-08-01T16:02:25.804Z,3.10
2022-08-01T16:04:55.494Z,2.80
2022-08-01T16:07:23.807Z,2.50
2022-08-01T16:09:52.190Z,3.30
2022-08-01T16:12:23.081Z,3.25
2022-08-01T16:14:51.833Z,2.88
2022-08-01T16:17:20.137Z,3.13
2022-08-01T16:19:50.672Z,2.92
2022-08-01T16:22:20.407Z,3.05
2022-08-01T16:24:48.917Z,3.08
2022-08-01T16:27:17.227Z,2.63
2022-08-01T16:29:45.579Z,2.70
2022-08-01T16:32:21.940Z,3.20
2022-08-01T16:34:58.199Z,2.65
2022-08-01T16:37:28.475Z,2.97
2022-08-01T16:39:57.419Z,2.88
2022-08-01T16:42:27.660Z,3.08
2022-08-01T16:44:56.480Z,3.05
2022-08-01T16:47:24.775Z,2.67
2022-08-01T16:49:53.120Z,3.20
2022-08-01T16:52:21.421Z,2.53
2022-08-01T16:54:51.127Z,2.78
2022-08-01T16:57:19.531Z,3.00
2022-08-01T16:59:48.131Z,2.70
2022-08-01T17:02:16.669Z,3.03
2022-08-01T17:04:45.616Z,2.70
2022-08-01T17:07:13.901Z,2.80
2022-08-01T17:09:43.679Z,2.70
2022-08-01T17:12:21.864Z,2.78
2022-08-01T17:14:51.111Z,2.80
2022-08-01T17:17:19.422Z,2.45
2022-08-01T17:19:47.833Z,2.40
2022-08-01T17:22:16.145Z,2.30
2022-08-01T17:24:44.601Z,2.90
2022-08-01T17:27:14.492Z,3.15
2022-08-01T17:29:44.206Z,3.10
2022-08-01T17:32:13.889Z,3.42
2022-08-01T17:34:42.769Z,3.53
2022-08-01T17:37:11.370Z,3.17
2022-08-01T17:39:40.065Z,3.08
2022-08-01T17:42:09.401Z,3.38
2022-08-01T17:44:39.100Z,3.38
2022-08-01T17:47:10.694Z,3.35
2022-08-01T17:49:54.362Z,3.45
2022-08-01T17:52:22.960Z,3.22
2022-08-01T17:54:54.407Z,3.58
2022-08-01T17:57:22.713Z,3.40
2022-08-01T17:59:52.473Z,3.50
2022-08-01T18:02:20.885Z,3.58
2022-08-01T18:04:49.261Z,3.70
2022-08-01T18:07:19.672Z,3.72
2022-08-01T18:09:48.069Z,3.67
2022-08-01T18:12:16.854Z,3.80
2022-08-01T18:14:46.955Z,3.03
2022-08-01T18:17:17.645Z,3.78
2022-08-01T18:19:46.782Z,3.53
2022-08-01T18:22:31.739Z,3.60
2022-08-01T18:25:08.409Z,3.70
2022-08-01T18:28:16.340Z,3.60
2022-08-01T18:30:26.042Z,3.60
2022-08-01T18:32:55.940Z,3.50
2022-08-01T18:35:52.443Z,3.70
2022-08-01T18:38:13.476Z,3.63
2022-08-01T18:40:42.052Z,3.33
2022-08-01T18:43:10.492Z,3.50
2022-08-01T18:45:42.771Z,3.00
2022-08-01T18:48:13.227Z,4.03
2022-08-01T18:50:41.580Z,3.47
2022-08-01T18:53:10.366Z,3.85
2022-08-01T18:55:38.779Z,3.50
2022-08-01T18:58:07.096Z,3.42
2022-08-01T19:00:35.529Z,3.70
2022-08-01T19:03:04.223Z,3.47
2022-08-01T19:05:35.035Z,3.80
2022-08-01T19:08:07.517Z,3.45
2022-08-01T19:10:36.607Z,3.75
2022-08-01T19:13:05.581Z,3.40
2022-08-01T19:15:34.098Z,3.92
2022-08-01T19:18:03.041Z,3.15
2022-08-01T19:20:31.748Z,3.67
2022-08-01T19:23:21.505Z,3.17
2022-08-01T19:25:54.982Z,3.42
2022-08-01T19:28:25.413Z,3.22
2022-08-01T19:30:54.746Z,3.38
2022-08-01T19:33:23.658Z,3.50
2022-08-01T19:35:53.552Z,3.10
2022-08-01T19:38:23.647Z,3.25
2022-08-01T19:40:52.098Z,3.20
2022-08-01T19:43:23.194Z,3.17
2022-08-01T19:45:52.233Z,3.33
2022-08-01T19:48:21.082Z,3.47
2022-08-01T19:50:50.864Z,3.17
2022-08-01T19:53:20.022Z,3.33
2022-08-01T19:55:49.989Z,3.42
2022-08-01T19:58:27.869Z,3.08
2022-08-01T20:00:57.237Z,3.08
2022-08-01T20:03:27.902Z,3.33
2022-08-01T20:05:56.320Z,2.90
2022-08-01T20:08:25.539Z,3.05
2022-08-01T20:10:55.860Z,2.47
2022-08-01T20:13:24.516Z,2.63
2022-08-01T20:15:54.026Z,3.00
2022-08-01T20:18:22.785Z,3.45
2022-08-01T20:20:51.672Z,3.05
2022-08-01T20:23:21.001Z,2.35
2022-08-01T20:25:50.573Z,2.65
2022-08-01T20:28:23.449Z,2.60
2022-08-01T20:30:54.912Z,3.00
2022-08-01T20:33:23.330Z,2.67
2022-08-01T20:35:53.822Z,2.80
2022-08-01T20:38:23.268Z,2.78
2022-08-01T20:40:53.245Z,2.42
2022-08-01T20:43:24.115Z,2.60
2022-08-01T20:45:52.820Z,2.80
2022-08-01T20:48:21.506Z,3.00
2022-08-01T20:51:08.493Z,2.65
2022-08-01T20:53:40.616Z,2.55
2022-08-01T20:56:13.106Z,2.78
2022-08-01T20:59:01.693Z,2.50
2022-08-01T21:01:30.894Z,2.60
2022-08-01T21:04:05.176Z,2.75
2022-08-01T21:06:37.767Z,2.80
2022-08-01T21:09:06.582Z,2.70
2022-08-01T21:11:39.747Z,2.53
2022-08-01T21:14:13.003Z,2.65
2022-08-01T21:16:43.065Z,2.35
2022-08-01T21:19:21.673Z,2.90
2022-08-01T21:21:51.906Z,2.55
2022-08-01T21:24:21.447Z,2.47
2022-08-01T21:26:49.872Z,2.30
2022-08-01T21:29:20.002Z,2.17
2022-08-01T21:32:10.641Z,2.67
2022-08-01T21:34:39.895Z,2.65
2022-08-01T21:37:09.208Z,2.47
2022-08-01T21:39:38.372Z,2.30
2022-08-01T21:42:09.415Z,2.33
2022-08-01T21:44:40.252Z,2.53
2022-08-01T21:47:11.834Z,2.10
2022-08-01T21:49:40.809Z,2.35
2022-08-01T21:52:14.561Z,2.45
2022-08-01T21:54:52.141Z,2.38
2022-08-01T21:57:27.272Z,2.33
2022-08-01T22:00:03.091Z,2.40
2022-08-01T22:02:36.684Z,2.53
2022-08-01T22:05:07.182Z,1.92
2022-08-01T22:07:36.707Z,2.20
2022-08-01T22:10:06.415Z,2.08
2022-08-01T22:12:36.367Z,2.10
2022-08-01T22:15:07.644Z,2.40
2022-08-01T22:17:36.457Z,2.30
2022-08-01T22:20:05.287Z,2.58
2022-08-01T22:22:50.732Z,2.58
2022-08-01T22:25:20.839Z,2.47
2022-08-01T22:28:08.383Z,2.20
2022-08-01T22:30:41.672Z,2.28
2022-08-01T22:33:17.010Z,2.05
2022-08-01T22:35:46.571Z,2.72
2022-08-01T22:38:14.959Z,2.50
2022-08-01T22:40:47.327Z,2.45
2022-08-01T22:43:19.543Z,2.10
2022-08-01T22:45:53.480Z,2.10
2022-08-01T22:48:26.308Z,2.20
2022-08-01T22:50:58.586Z,2.42
2022-08-01T22:53:32.191Z,2.38
2022-08-01T22:56:01.397Z,2.17
2022-08-01T22:58:31.170Z,2.38
2022-08-01T23:01:02.495Z,2.35
2022-08-01T23:03:31.704Z,2.10
2022-08-01T23:06:03.991Z,2.55
2022-08-01T23:08:32.939Z,2.38
2022-08-01T23:11:02.026Z,2.45
2022-08-01T23:13:31.032Z,2.45
2022-08-01T23:15:59.518Z,2.33
2022-08-01T23:18:29.544Z,2.40
2022-08-01T23:20:59.132Z,2.50
2022-08-01T23:23:30.765Z,2.47
2022-08-01T23:26:00.418Z,2.40
2022-08-01T23:28:29.236Z,2.40
2022-08-01T23:30:57.795Z,2.13
2022-08-01T23:33:26.370Z,2.35
2022-08-01T23:35:56.310Z,2.30
2022-08-01T23:38:24.674Z,2.20
2022-08-01T23:40:53.304Z,2.20
2022-08-01T23:43:21.635Z,2.50
2022-08-01T23:46:03.309Z,2.40
2022-08-01T23:48:34.126Z,2.40
2022-08-01T23:51:04.134Z,2.28
2022-08-01T23:53:33.623Z,2.45
2022-08-01T23:56:04.329Z,2.15
2022-08-01T23:58:33.528Z,2.42
